createdAt,value
2019-02-05T00:00:37.074Z,3.60
2019-02-05T00:03:05.443Z,3.90
2019-02-05T00:05:32.868Z,3.63
2019-02-05T00:08:00.225Z,3.33
2019-02-05T00:10:27.624Z,3.80
2019-02-05T00:12:55.105Z,3.73
2019-02-05T00:15:22.484Z,3.80
2019-02-05T00:17:49.965Z,3.80
2019-02-05T00:20:18.341Z,4.10
2019-02-05T00:22:45.727Z,4.00
2019-02-05T00:25:13.253Z,3.93
2019-02-05T00:27:40.606Z,3.70
2019-02-05T00:30:08.154Z,3.87
2019-02-05T00:32:35.546Z,3.93
2019-02-05T00:35:04.005Z,4.10
2019-02-05T00:37:31.366Z,3.90
2019-02-05T00:39:58.730Z,3.70
2019-02-05T00:42:26.221Z,4.07
2019-02-05T00:44:53.633Z,3.80
2019-02-05T00:47:21.013Z,3.60
2019-02-05T00:49:48.382Z,3.70
2019-02-05T00:52:15.865Z,3.97
2019-02-05T00:54:43.262Z,3.53
2019-02-05T00:57:10.608Z,3.10
2019-02-05T00:59:37.972Z,3.20
2019-02-05T01:02:05.335Z,3.50
2019-02-05T01:04:32.749Z,3.50
2019-02-05T01:07:00.115Z,3.87
2019-02-05T01:09:27.615Z,3.83
2019-02-05T01:11:55.000Z,3.70
2019-02-05T01:14:22.380Z,3.60
2019-02-05T01:16:49.753Z,3.63
2019-02-05T01:19:17.145Z,3.60
2019-02-05T01:21:44.565Z,3.40
2019-02-05T01:24:11.993Z,3.33
2019-02-05T01:26:39.471Z,3.57
2019-02-05T01:29:06.805Z,2.93
2019-02-05T01:31:34.185Z,3.37
2019-02-05T01:34:01.565Z,3.20
2019-02-05T01:36:28.973Z,3.67
2019-02-05T01:38:56.354Z,3.20
2019-02-05T01:41:23.765Z,3.80
2019-02-05T01:43:51.215Z,3.47
2019-02-05T01:46:18.594Z,3.00
2019-02-05T01:48:45.989Z,3.30
2019-02-05T01:51:13.385Z,3.20
2019-02-05T01:53:40.793Z,3.13
2019-02-05T01:56:08.187Z,3.17
2019-02-05T01:58:35.533Z,3.13
2019-02-05T02:01:04.729Z,3.70
2019-02-05T02:03:32.245Z,3.30
2019-02-05T02:05:59.635Z,3.60
2019-02-05T02:08:26.985Z,3.80
2019-02-05T02:10:54.370Z,3.60
2019-02-05T02:13:22.339Z,3.80
2019-02-05T02:15:49.854Z,3.83
2019-02-05T02:18:17.547Z,3.40
2019-02-05T02:20:44.945Z,3.13
2019-02-05T02:23:12.328Z,3.37
2019-02-05T02:25:39.716Z,3.80
2019-02-05T02:28:07.106Z,3.63
2019-02-05T02:30:36.816Z,3.70
2019-02-05T02:33:05.210Z,3.47
2019-02-05T02:35:32.670Z,3.23
2019-02-05T02:38:00.487Z,3.60
2019-02-05T02:40:27.909Z,3.80
2019-02-05T02:42:55.293Z,3.47
2019-02-05T02:45:22.646Z,3.70
2019-02-05T02:47:50.191Z,3.50
2019-02-05T02:50:17.620Z,3.90
2019-02-05T02:52:45.305Z,3.63
2019-02-05T02:55:12.785Z,3.33
2019-02-05T02:57:40.988Z,4.03
2019-02-05T03:00:11.225Z,3.20
2019-02-05T03:02:38.735Z,3.67
2019-02-05T03:05:08.813Z,3.60
2019-02-05T03:07:36.172Z,3.33
2019-02-05T03:10:05.875Z,3.53
2019-02-05T03:12:33.667Z,3.60
2019-02-05T03:15:01.091Z,3.90
2019-02-05T03:17:28.470Z,3.70
2019-02-05T03:19:56.205Z,3.80
2019-02-05T03:22:23.615Z,3.73
2019-02-05T03:24:50.985Z,3.80
2019-02-05T03:27:18.617Z,3.30
2019-02-05T03:29:46.027Z,3.43
2019-02-05T03:32:13.510Z,3.50
2019-02-05T03:34:41.433Z,3.53
2019-02-05T03:37:08.886Z,3.53
2019-02-05T03:39:36.273Z,3.10
2019-02-05T03:42:03.653Z,3.00
2019-02-05T03:44:31.026Z,3.37
2019-02-05T03:46:58.519Z,3.20
2019-02-05T03:49:26.280Z,3.30
2019-02-05T03:52:11.366Z,3.30
2019-02-05T03:55:14.784Z,3.30
2019-02-05T03:58:21.061Z,3.13
2019-02-05T04:01:30.901Z,3.20
2019-02-05T04:04:25.874Z,3.53
2019-02-05T04:07:28.369Z,3.07
2019-02-05T04:10:29.789Z,3.20
2019-02-05T04:13:37.685Z,3.20
2019-02-05T04:16:54.561Z,3.23
2019-02-05T04:20:10.714Z,3.37
2019-02-05T04:23:35.094Z,3.53
2019-02-05T04:26:34.638Z,3.60
2019-02-05T04:30:02.093Z,3.20
2019-02-05T04:33:11.379Z,3.17
2019-02-05T04:36:19.881Z,3.67
2019-02-05T04:39:23.404Z,3.50
2019-02-05T04:42:26.992Z,3.90
2019-02-05T04:45:34.159Z,3.30
2019-02-05T04:49:00.001Z,3.30
2019-02-05T04:51:48.225Z,3.13
2019-02-05T04:54:59.291Z,3.20
2019-02-05T04:58:01.301Z,3.27
2019-02-05T05:01:08.796Z,3.00
2019-02-05T05:04:17.885Z,3.20
2019-02-05T05:07:20.061Z,3.50
2019-02-05T05:10:04.264Z,2.73
2019-02-05T05:12:31.747Z,3.30
2019-02-05T05:14:59.883Z,3.23
2019-02-05T05:17:27.334Z,3.30
2019-02-05T05:19:54.826Z,3.33
2019-02-05T05:22:22.310Z,3.10
2019-02-05T05:24:49.685Z,3.60
2019-02-05T05:27:19.365Z,3.20
2019-02-05T05:29:46.985Z,3.13
2019-02-05T05:32:14.445Z,3.10
2019-02-05T05:34:41.804Z,3.30
2019-02-05T05:37:08.005Z,3.57
2019-02-05T05:39:35.384Z,3.23
2019-02-05T05:42:02.885Z,3.07
2019-02-05T05:44:30.265Z,3.20
2019-02-05T05:46:57.661Z,3.23
2019-02-05T05:49:25.265Z,3.77
2019-02-05T05:51:52.715Z,3.33
2019-02-05T05:54:20.105Z,3.60
2019-02-05T05:56:47.493Z,3.00
2019-02-05T05:59:14.845Z,2.93
2019-02-05T06:01:42.210Z,3.20
2019-02-05T06:04:09.600Z,3.13
2019-02-05T06:06:36.949Z,3.20
2019-02-05T06:09:07.193Z,3.50
2019-02-05T06:11:34.590Z,2.63
2019-02-05T06:14:01.966Z,3.80
2019-02-05T06:16:29.385Z,3.30
2019-02-05T06:18:56.814Z,3.07
2019-02-05T06:21:24.185Z,3.53
2019-02-05T06:23:51.615Z,3.50
2019-02-05T06:26:20.311Z,3.37
2019-02-05T06:28:48.121Z,4.67
2019-02-05T06:31:15.526Z,4.40
2019-02-05T06:33:43.033Z,4.50
2019-02-05T06:36:10.413Z,4.00
2019-02-05T06:38:37.833Z,3.83
2019-02-05T06:41:05.245Z,4.10
2019-02-05T06:43:32.625Z,3.80
2019-02-05T06:46:00.033Z,4.53
2019-02-05T06:48:27.440Z,4.77
2019-02-05T06:50:56.925Z,4.63
2019-02-05T06:53:24.133Z,4.37
2019-02-05T06:55:52.202Z,4.53
2019-02-05T06:58:19.573Z,4.57
2019-02-05T07:00:46.981Z,4.27
2019-02-05T07:03:14.545Z,4.50
2019-02-05T07:05:41.965Z,4.33
2019-02-05T07:08:09.425Z,4.67
2019-02-05T07:10:36.770Z,4.30
2019-02-05T07:13:04.285Z,4.53
2019-02-05T07:15:31.671Z,5.20
2019-02-05T07:17:58.986Z,4.50
2019-02-05T07:20:27.339Z,5.90
2019-02-05T07:22:55.715Z,5.90
2019-02-05T07:25:23.278Z,5.30
2019-02-05T07:27:50.627Z,4.33
2019-02-05T07:30:20.076Z,4.50
2019-02-05T07:32:47.448Z,4.17
2019-02-05T07:35:14.875Z,3.90
2019-02-05T07:37:42.230Z,3.87
2019-02-05T07:40:11.651Z,3.90
2019-02-05T07:42:39.968Z,4.00
2019-02-05T07:45:09.817Z,3.43
2019-02-05T07:47:37.141Z,3.63
2019-02-05T07:50:06.681Z,3.57
2019-02-05T07:52:34.143Z,3.70
2019-02-05T07:55:01.463Z,3.60
2019-02-05T07:57:28.762Z,3.47
2019-02-05T07:59:56.187Z,3.63
2019-02-05T08:02:23.760Z,3.00
2019-02-05T08:04:51.087Z,3.30
2019-02-05T08:07:18.421Z,3.20
2019-02-05T08:09:45.730Z,3.80
2019-02-05T08:12:13.062Z,3.20
2019-02-05T08:14:40.387Z,3.47
2019-02-05T08:17:07.718Z,3.20
2019-02-05T08:19:35.063Z,3.37
2019-02-05T08:22:02.442Z,3.70
2019-02-05T08:24:29.954Z,3.30
2019-02-05T08:26:57.277Z,3.53
2019-02-05T08:29:24.750Z,3.73
2019-02-05T08:31:52.173Z,3.33
2019-02-05T08:34:19.579Z,3.70
2019-02-05T08:36:47.795Z,3.33
2019-02-05T08:39:17.910Z,3.63
2019-02-05T08:41:44.434Z,3.20
2019-02-05T08:44:11.993Z,3.40
2019-02-05T08:46:39.311Z,3.30
2019-02-05T08:49:06.660Z,3.57
2019-02-05T08:51:34.062Z,3.30
2019-02-05T08:54:01.388Z,3.17
2019-02-05T08:56:28.848Z,2.63
2019-02-05T08:58:56.149Z,3.30
2019-02-05T09:01:23.465Z,3.27
2019-02-05T09:03:50.838Z,3.10
2019-02-05T09:06:18.178Z,3.13
2019-02-05T09:08:47.067Z,3.30
2019-02-05T09:11:14.593Z,3.33
2019-02-05T09:13:42.225Z,3.03
2019-02-05T09:16:09.530Z,3.30
2019-02-05T09:18:36.856Z,2.90
2019-02-05T09:21:07.054Z,3.37
2019-02-05T09:23:34.488Z,2.87
2019-02-05T09:26:01.833Z,3.13
2019-02-05T09:28:29.152Z,2.87
2019-02-05T09:30:56.473Z,2.80
2019-02-05T09:33:23.832Z,2.83
2019-02-05T09:35:51.275Z,2.83
2019-02-05T09:38:18.639Z,2.90
2019-02-05T09:40:45.985Z,2.63
2019-02-05T09:43:13.527Z,2.13
2019-02-05T09:45:40.858Z,2.53
2019-02-05T09:48:08.868Z,2.53
2019-02-05T09:50:44.627Z,2.47
2019-02-05T09:53:09.485Z,2.50
2019-02-05T09:55:36.988Z,2.20
2019-02-05T09:58:04.461Z,2.40
2019-02-05T10:00:34.476Z,2.07
2019-02-05T10:03:02.014Z,2.20
2019-02-05T10:05:30.242Z,2.10
2019-02-05T10:07:57.652Z,2.23
2019-02-05T10:10:25.203Z,2.10
2019-02-05T10:12:52.521Z,2.20
2019-02-05T10:15:22.305Z,1.70
2019-02-05T10:17:49.650Z,1.60
2019-02-05T10:20:17.690Z,1.90
2019-02-05T10:22:46.105Z,1.60
2019-02-05T10:25:13.638Z,1.73
2019-02-05T10:27:41.034Z,1.60
2019-02-05T10:30:19.639Z,1.50
2019-02-05T10:32:47.121Z,1.70
2019-02-05T10:35:14.540Z,1.40
2019-02-05T10:37:41.991Z,1.57
2019-02-05T10:40:09.461Z,1.60
2019-02-05T10:42:36.911Z,1.70
2019-02-05T10:45:06.113Z,1.90
2019-02-05T10:47:33.464Z,1.80
2019-02-05T10:50:00.806Z,1.77
2019-02-05T10:52:28.161Z,1.87
2019-02-05T10:54:55.708Z,1.70
2019-02-05T10:57:23.069Z,1.50
2019-02-05T10:59:50.439Z,1.30
2019-02-05T11:02:17.805Z,1.53
2019-02-05T11:04:45.210Z,1.20
2019-02-05T11:07:12.637Z,1.20
2019-02-05T11:09:40.068Z,1.50
2019-02-05T11:12:07.477Z,1.50
2019-02-05T11:14:34.921Z,1.50
2019-02-05T11:17:02.470Z,1.50
2019-02-05T11:19:29.829Z,1.77
2019-02-05T11:21:57.217Z,1.20
2019-02-05T11:24:24.595Z,1.20
2019-02-05T11:26:52.041Z,1.17
2019-02-05T11:29:19.457Z,1.10
2019-02-05T11:31:46.843Z,1.20
2019-02-05T11:34:14.222Z,1.00
2019-02-05T11:36:41.722Z,1.03
2019-02-05T11:39:14.463Z,1.20
2019-02-05T11:41:41.853Z,0.90
2019-02-05T11:44:09.273Z,1.07
2019-02-05T11:46:36.764Z,1.03
2019-02-05T11:49:04.372Z,1.00
2019-02-05T11:51:31.841Z,1.10
2019-02-05T11:53:59.652Z,1.00
2019-02-05T11:56:27.016Z,1.10
2019-02-05T11:58:54.422Z,1.00
2019-02-05T12:01:25.500Z,1.10
2019-02-05T12:03:52.953Z,1.00
2019-02-05T12:06:20.434Z,1.00
2019-02-05T12:08:47.818Z,1.10
2019-02-05T12:11:15.289Z,1.10
2019-02-05T12:13:42.894Z,1.00
2019-02-05T12:16:10.286Z,1.03
2019-02-05T12:18:37.697Z,1.07
2019-02-05T12:21:05.134Z,1.20
2019-02-05T12:23:32.529Z,0.90
2019-02-05T12:25:59.897Z,1.00
2019-02-05T12:28:27.329Z,1.03
2019-02-05T12:30:54.718Z,0.77
2019-02-05T12:33:22.096Z,1.50
2019-02-05T12:35:49.577Z,1.10
2019-02-05T12:38:17.157Z,1.27
2019-02-05T12:40:44.680Z,1.07
2019-02-05T12:43:12.089Z,1.10
2019-02-05T12:45:39.813Z,1.20
2019-02-05T12:48:07.321Z,1.27
2019-02-05T12:50:35.863Z,1.20
2019-02-05T12:53:03.517Z,1.17
2019-02-05T12:55:31.246Z,1.30
2019-02-05T12:57:59.200Z,1.17
2019-02-05T13:00:32.778Z,1.30
2019-02-05T13:03:00.337Z,1.50
2019-02-05T13:05:27.724Z,1.00
2019-02-05T13:07:55.145Z,1.00
2019-02-05T13:10:25.138Z,1.10
2019-02-05T13:12:52.537Z,1.10
2019-02-05T13:15:19.965Z,0.90
2019-02-05T13:17:47.359Z,1.00
2019-02-05T13:20:18.785Z,1.00
2019-02-05T13:22:46.176Z,0.90
2019-02-05T13:25:16.925Z,0.83
2019-02-05T13:27:44.500Z,1.00
2019-02-05T13:30:14.258Z,0.70
2019-02-05T13:32:41.673Z,0.70
2019-02-05T13:35:09.725Z,0.83
2019-02-05T13:37:37.073Z,0.83
2019-02-05T13:40:06.117Z,0.90
2019-02-05T13:42:33.521Z,1.00
2019-02-05T13:45:00.965Z,1.00
2019-02-05T13:47:28.413Z,0.83
2019-02-05T13:49:55.819Z,0.90
2019-02-05T13:52:23.317Z,1.00
2019-02-05T13:54:50.717Z,1.10
2019-02-05T13:57:18.318Z,0.80
2019-02-05T13:59:45.835Z,0.90
2019-02-05T14:02:13.517Z,1.00
2019-02-05T14:04:41.296Z,0.80
2019-02-05T14:07:08.885Z,0.70
2019-02-05T14:09:36.532Z,0.60
2019-02-05T14:12:04.440Z,0.90
2019-02-05T14:14:32.037Z,0.93
2019-02-05T14:16:59.728Z,0.90
2019-02-05T14:19:27.882Z,1.00
2019-02-05T14:21:55.862Z,0.80
2019-02-05T14:24:23.471Z,1.00
2019-02-05T14:26:51.619Z,0.83
2019-02-05T14:29:19.420Z,0.80
2019-02-05T14:31:46.909Z,1.17
2019-02-05T14:34:14.436Z,1.27
2019-02-05T14:36:42.017Z,1.20
2019-02-05T14:39:10.202Z,1.60
2019-02-05T14:41:37.753Z,1.50
2019-02-05T14:44:05.384Z,1.20
2019-02-05T14:46:32.980Z,1.40
2019-02-05T14:49:00.639Z,0.90
2019-02-05T14:51:28.514Z,0.77
2019-02-05T14:53:56.326Z,0.90
2019-02-05T14:56:24.227Z,0.90
2019-02-05T14:58:52.150Z,0.90
2019-02-05T15:01:20.116Z,0.80
2019-02-05T15:03:48.022Z,1.00
2019-02-05T15:06:15.732Z,1.17
2019-02-05T15:08:43.328Z,1.10
2019-02-05T15:11:11.208Z,1.00
2019-02-05T15:13:38.848Z,1.10
2019-02-05T15:16:06.654Z,0.87
2019-02-05T15:18:34.580Z,0.97
2019-02-05T15:21:02.529Z,1.10
2019-02-05T15:23:30.527Z,1.20
2019-02-05T15:25:58.507Z,1.00
2019-02-05T15:28:26.406Z,1.10
2019-02-05T15:30:54.236Z,1.40
2019-02-05T15:33:38.603Z,0.93
2019-02-05T15:36:49.080Z,1.00
2019-02-05T15:39:16.918Z,1.10
2019-02-05T15:41:44.778Z,1.70
2019-02-05T15:44:12.877Z,1.90
2019-02-05T15:46:40.821Z,2.23
2019-02-05T15:49:08.799Z,2.13
2019-02-05T15:51:36.824Z,2.10
2019-02-05T15:54:04.928Z,1.93
2019-02-05T15:56:32.739Z,2.47
2019-02-05T15:59:00.734Z,3.10
2019-02-05T16:01:28.830Z,2.73
2019-02-05T16:03:56.773Z,4.30
2019-02-05T16:06:24.768Z,1.90
2019-02-05T16:08:52.680Z,2.20
2019-02-05T16:11:20.557Z,1.70
2019-02-05T16:13:48.657Z,2.17
2019-02-05T16:16:16.749Z,1.97
2019-02-05T16:18:45.528Z,1.20
2019-02-05T16:21:13.502Z,1.30
2019-02-05T16:23:41.475Z,1.00
2019-02-05T16:26:09.440Z,1.00
2019-02-05T16:28:37.420Z,1.17
2019-02-05T16:31:05.267Z,1.60
2019-02-05T16:33:33.254Z,11.67
2019-02-05T16:36:01.456Z,2.10
2019-02-05T16:38:29.345Z,1.97
2019-02-05T16:40:57.307Z,1.40
2019-02-05T16:43:27.901Z,1.70
2019-02-05T16:45:54.899Z,3.57
2019-02-05T16:48:22.757Z,2.17
2019-02-05T16:50:50.760Z,2.87
2019-02-05T16:53:18.779Z,2.83
2019-02-05T16:55:46.912Z,2.60
2019-02-05T16:58:14.649Z,2.17
2019-02-05T17:00:42.556Z,3.30
2019-02-05T17:03:10.489Z,3.33
2019-02-05T17:05:39.303Z,3.80
2019-02-05T17:08:07.494Z,4.10
2019-02-05T17:10:35.573Z,4.23
2019-02-05T17:13:03.674Z,6.97
2019-02-05T17:15:31.728Z,3.87
2019-02-05T17:17:59.711Z,5.80
2019-02-05T17:20:28.943Z,8.13
2019-02-05T17:22:56.917Z,5.53
2019-02-05T17:25:25.914Z,3.30
2019-02-05T17:27:55.219Z,2.53
2019-02-05T17:30:26.782Z,2.20
2019-02-05T17:32:54.839Z,2.40
2019-02-05T17:35:24.290Z,1.50
2019-02-05T17:37:52.327Z,1.13
2019-02-05T17:40:24.136Z,1.33
2019-02-05T17:42:53.309Z,1.13
2019-02-05T17:45:24.632Z,1.50
2019-02-05T17:47:53.770Z,2.00
2019-02-05T17:50:21.780Z,1.87
2019-02-05T17:52:49.792Z,1.90
2019-02-05T17:55:19.560Z,2.00
2019-02-05T17:57:48.713Z,1.70
2019-02-05T18:00:31.267Z,2.00
2019-02-05T18:02:59.246Z,1.80
2019-02-05T18:05:27.269Z,1.40
2019-02-05T18:07:55.362Z,5.53
2019-02-05T18:10:25.383Z,2.00
2019-02-05T18:12:53.769Z,2.07
2019-02-05T18:15:27.703Z,2.20
2019-02-05T18:17:55.768Z,2.30
2019-02-05T18:20:23.627Z,2.40
2019-02-05T18:22:52.007Z,2.73
2019-02-05T18:25:20.217Z,3.47
2019-02-05T18:27:51.530Z,2.97
2019-02-05T18:30:22.725Z,3.37
2019-02-05T18:32:50.852Z,4.83
2019-02-05T18:35:18.811Z,4.27
2019-02-05T18:37:47.380Z,2.80
2019-02-05T18:40:16.817Z,2.33
2019-02-05T18:42:45.162Z,1.80
2019-02-05T18:45:14.563Z,2.00
2019-02-05T18:47:42.700Z,2.20
2019-02-05T18:50:14.973Z,2.20
2019-02-05T18:52:44.731Z,2.40
2019-02-05T18:55:12.691Z,2.87
2019-02-05T18:57:41.228Z,3.20
2019-02-05T19:00:19.545Z,3.13
2019-02-05T19:02:47.593Z,3.70
2019-02-05T19:05:16.224Z,2.70
2019-02-05T19:07:44.807Z,2.70
2019-02-05T19:10:13.487Z,2.30
2019-02-05T19:12:41.604Z,2.13
2019-02-05T19:15:15.843Z,2.13
2019-02-05T19:17:44.013Z,2.53
2019-02-05T19:20:12.162Z,2.90
2019-02-05T19:22:49.542Z,2.83
2019-02-05T19:25:42.572Z,3.00
2019-02-05T19:28:15.241Z,3.40
2019-02-05T19:30:44.065Z,3.70
2019-02-05T19:33:13.766Z,3.67
2019-02-05T19:35:42.920Z,3.67
2019-02-05T19:38:13.488Z,3.67
2019-02-05T19:40:41.618Z,3.87
2019-02-05T19:43:09.636Z,3.17
2019-02-05T19:45:53.245Z,3.57
2019-02-05T19:48:34.973Z,3.50
2019-02-05T19:51:03.347Z,2.97
2019-02-05T19:53:32.008Z,3.00
2019-02-05T19:56:00.132Z,3.10
2019-02-05T19:58:28.310Z,3.30
2019-02-05T20:00:56.433Z,4.10
2019-02-05T20:03:25.859Z,3.90
2019-02-05T20:05:54.313Z,4.03
2019-02-05T20:08:23.477Z,4.67
2019-02-05T20:10:51.677Z,4.40
2019-02-05T20:13:19.962Z,4.50
2019-02-05T20:15:51.191Z,4.47
2019-02-05T20:18:25.220Z,4.87
2019-02-05T20:20:53.717Z,5.07
2019-02-05T20:23:23.119Z,5.10
2019-02-05T20:25:51.076Z,5.83
2019-02-05T20:28:19.447Z,5.70
2019-02-05T20:30:47.347Z,5.70
2019-02-05T20:33:16.623Z,5.90
2019-02-05T20:35:46.466Z,6.60
2019-02-05T20:38:14.527Z,5.77
2019-02-05T20:40:42.547Z,5.17
2019-02-05T20:43:10.590Z,5.03
2019-02-05T20:45:40.976Z,5.03
2019-02-05T20:48:09.094Z,5.13
2019-02-05T20:50:37.165Z,4.90
2019-02-05T20:53:13.451Z,5.37
2019-02-05T20:55:35.033Z,4.97
2019-02-05T20:58:03.249Z,4.63
2019-02-05T21:00:35.943Z,4.90
2019-02-05T21:03:05.524Z,5.37
2019-02-05T21:05:34.439Z,5.83
2019-02-05T21:08:03.681Z,5.43
2019-02-05T21:10:31.675Z,5.87
2019-02-05T21:12:59.703Z,5.73
2019-02-05T21:15:28.298Z,5.40
2019-02-05T21:17:56.380Z,4.77
2019-02-05T21:20:29.232Z,4.40
2019-02-05T21:22:56.679Z,4.40
2019-02-05T21:25:24.267Z,4.10
2019-02-05T21:27:52.170Z,4.70
2019-02-05T21:30:20.328Z,4.87
2019-02-05T21:32:48.349Z,5.60
2019-02-05T21:35:16.545Z,5.90
2019-02-05T21:37:44.933Z,6.10
2019-02-05T21:40:18.600Z,5.97
2019-02-05T21:42:46.501Z,6.13
2019-02-05T21:45:16.921Z,5.90
2019-02-05T21:47:44.867Z,5.53
2019-02-05T21:50:15.218Z,6.30
2019-02-05T21:52:43.122Z,6.07
2019-02-05T21:55:11.937Z,5.80
2019-02-05T21:57:39.809Z,5.87
2019-02-05T22:00:16.724Z,5.70
2019-02-05T22:02:44.690Z,5.83
2019-02-05T22:05:12.648Z,6.10
2019-02-05T22:07:40.602Z,5.93
2019-02-05T22:10:08.745Z,6.27
2019-02-05T22:12:36.762Z,6.23
2019-02-05T22:15:06.376Z,6.20
2019-02-05T22:17:33.806Z,6.17
2019-02-05T22:20:01.262Z,6.50
2019-02-05T22:22:28.697Z,6.07
2019-02-05T22:24:56.137Z,6.30
2019-02-05T22:27:23.537Z,5.93
2019-02-05T22:29:50.959Z,5.97
2019-02-05T22:32:18.358Z,5.07
2019-02-05T22:34:45.813Z,5.47
2019-02-05T22:37:13.165Z,6.50
2019-02-05T22:39:40.638Z,6.00
2019-02-05T22:42:08.037Z,5.17
2019-02-05T22:44:35.517Z,5.67
2019-02-05T22:47:03.122Z,5.60
2019-02-05T22:49:30.497Z,5.63
2019-02-05T22:51:57.898Z,6.17
2019-02-05T22:54:25.278Z,5.53
2019-02-05T22:56:52.637Z,6.13
2019-02-05T22:59:20.121Z,5.30
2019-02-05T23:01:56.167Z,5.47
2019-02-05T23:04:51.097Z,5.23
2019-02-05T23:07:20.726Z,5.23
2019-02-05T23:10:09.583Z,5.20
2019-02-05T23:13:01.942Z,5.43
2019-02-05T23:15:29.998Z,4.73
2019-02-05T23:17:57.419Z,5.30
2019-02-05T23:20:24.797Z,5.63
2019-02-05T23:22:52.886Z,5.40
2019-02-05T23:25:20.326Z,5.30
2019-02-05T23:27:48.000Z,5.40
2019-02-05T23:30:18.337Z,5.40
2019-02-05T23:32:45.818Z,5.20
2019-02-05T23:35:13.937Z,5.37
2019-02-05T23:37:41.398Z,5.47
2019-02-05T23:40:09.156Z,5.13
2019-02-05T23:42:36.641Z,5.47
2019-02-05T23:45:05.752Z,5.17
2019-02-05T23:47:33.396Z,5.13
2019-02-05T23:50:00.757Z,5.00
2019-02-05T23:52:28.108Z,5.37
2019-02-05T23:54:55.533Z,4.93
2019-02-05T23:57:22.917Z,5.43
2019-02-05T23:59:50.277Z,4.63
